Koyo Maru — JI3710 — position and weather

sailwx.info

Track history (hours):
 
Tides and Currents Weather Stations Pressure Air Temp Water Temp Dewpoint Dewpoint Depression Visibility Wind Speed Wind Dir Waves Ship Positions

Koyo Maru

Last reported at 2016-Jul-30 09:29 UTC. Time now 2016-Jul-30 14:59 UTC.
Position N 34°36' E 134°56'.

Length 125 m; draft 6 m.

Type: Cargo ship. MMSI: 431401953.

Date/timePositionNaut miles runAvg speedWind from/ knotsBaromVisibWave heightAir tempDewpointWater temp
2016-Jul-30 09:29N 34°36' E 134°56'1617.3
2016-Jul-30 08:33N 34°36' E 135°15'9 7.5
2016-Jul-30 07:23N 34°35' E 135°26'0 0.0
2016-Jul-30 06:17N 34°35' E 135°26'0 0.0
2016-Jul-30 05:29N 34°35' E 135°26'0 0.0
2016-Jul-30 04:29N 34°35' E 135°26'0 0.0
2016-Jul-30 03:28N 34°35' E 135°26'0 0.0
2016-Jul-30 02:28N 34°35' E 135°26'0 0.0
2016-Jul-30 01:28N 34°35' E 135°26'0 0.0
2016-Jul-30 00:28N 34°35' E 135°26'3 3.2
2016-Jul-29 23:33N 34°36' E 135°23'4 3.7
2016-Jul-29 22:23N 34°35' E 135°18'0 0.0
2016-Jul-29 21:29N 34°35' E 135°18'0 0.0
2016-Jul-29 20:29N 34°35' E 135°18'0 0.0
2016-Jul-29 19:29N 34°35' E 135°18'0 0.0
2016-Jul-29 18:29N 34°35' E 135°18'0 0.0
2016-Jul-29 17:29N 34°35' E 135°18'0 0.0
2016-Jul-29 16:23N 34°35' E 135°18'0 0.0
2016-Jul-29 15:29N 34°35' E 135°18'0 0.0
2016-Jul-29 14:17N 34°35' E 135°18'0 0.0
2016-Jul-29 13:29N 34°35' E 135°18'4 4.2
2016-Jul-29 12:33N 34°35' E 135°13'  
2016-Jul-26 10:22N 34°07' E 134°59'1518.1
2016-Jul-26 09:32N 34°22' E 135°01'1818.1
2016-Jul-26 08:34N 34°33' E 135°17'7 6.9
2016-Jul-26 07:30N 34°35' E 135°26'0 0.0
2016-Jul-26 06:30N 34°35' E 135°26'0 0.0
2016-Jul-26 05:30N 34°35' E 135°26'0 0.0
2016-Jul-26 04:24N 34°35' E 135°26'0 0.0
2016-Jul-26 03:30N 34°35' E 135°26'0 0.0
2016-Jul-26 02:30N 34°35' E 135°26'0 0.0
2016-Jul-26 01:30N 34°35' E 135°26'0 0.0
2016-Jul-26 00:30N 34°35' E 135°26'0 0.0
2016-Jul-25 23:30N 34°35' E 135°26'0 0.0
2016-Jul-25 22:33N 34°35' E 135°26'7 7.1
2016-Jul-25 21:33N 34°33' E 135°17'  
Track history (hours):
 
Tides and Currents Weather Stations Pressure Air Temp Water Temp Dewpoint Dewpoint Depression Visibility Wind Speed Wind Dir Waves Ship Positions

Koyo Maru

Last reported at 2016-Jul-30 09:29 UTC. Time now 2016-Jul-30 14:59 UTC.
Position N 34°36' E 134°56'.

Length 125 m; draft 6 m.

Type: Cargo ship. MMSI: 431401953.

Date/timePositionNaut miles runAvg speedWind from/ knotsBaromVisibWave heightAir tempDewpointWater temp
2016-Jul-30 09:29N 34°36' E 134°56'1617.3
2016-Jul-30 08:33N 34°36' E 135°15'9 7.5
2016-Jul-30 07:23N 34°35' E 135°26'0 0.0
2016-Jul-30 06:17N 34°35' E 135°26'0 0.0
2016-Jul-30 05:29N 34°35' E 135°26'0 0.0
2016-Jul-30 04:29N 34°35' E 135°26'0 0.0
2016-Jul-30 03:28N 34°35' E 135°26'0 0.0
2016-Jul-30 02:28N 34°35' E 135°26'0 0.0
2016-Jul-30 01:28N 34°35' E 135°26'0 0.0
2016-Jul-30 00:28N 34°35' E 135°26'3 3.2
2016-Jul-29 23:33N 34°36' E 135°23'4 3.7
2016-Jul-29 22:23N 34°35' E 135°18'0 0.0
2016-Jul-29 21:29N 34°35' E 135°18'0 0.0
2016-Jul-29 20:29N 34°35' E 135°18'0 0.0
2016-Jul-29 19:29N 34°35' E 135°18'0 0.0
2016-Jul-29 18:29N 34°35' E 135°18'0 0.0
2016-Jul-29 17:29N 34°35' E 135°18'0 0.0
2016-Jul-29 16:23N 34°35' E 135°18'0 0.0
2016-Jul-29 15:29N 34°35' E 135°18'0 0.0
2016-Jul-29 14:17N 34°35' E 135°18'0 0.0
2016-Jul-29 13:29N 34°35' E 135°18'4 4.2
2016-Jul-29 12:33N 34°35' E 135°13'  
2016-Jul-26 10:22N 34°07' E 134°59'1518.1
2016-Jul-26 09:32N 34°22' E 135°01'1818.1
2016-Jul-26 08:34N 34°33' E 135°17'7 6.9
2016-Jul-26 07:30N 34°35' E 135°26'0 0.0
2016-Jul-26 06:30N 34°35' E 135°26'0 0.0
2016-Jul-26 05:30N 34°35' E 135°26'0 0.0
2016-Jul-26 04:24N 34°35' E 135°26'0 0.0
2016-Jul-26 03:30N 34°35' E 135°26'0 0.0
2016-Jul-26 02:30N 34°35' E 135°26'0 0.0
2016-Jul-26 01:30N 34°35' E 135°26'0 0.0
2016-Jul-26 00:30N 34°35' E 135°26'0 0.0
2016-Jul-25 23:30N 34°35' E 135°26'0 0.0
2016-Jul-25 22:33N 34°35' E 135°26'7 7.1
2016-Jul-25 21:33N 34°33' E 135°17'  

Dump ship's entire track history